Aérodrome :
LOGIN :

S'inscrire | Disclaimer

   EN    FR    IT 

 










Légende :    VFR   VFR Marginal   IFR   IFR Intensif   IFR Très Intensif
Visi : 
Plafond : 
>= 8 km
>= 3000ft
5 à 8 km
1000 à 3000 ft
1500m à 5 km
500 à 1000 ft
800 à 1500m
200 à 500 ft
< 800m
< 200 ft
Symboles :   Orages  Brouillard  Fortes neiges  Fortes précipitations  Vent > 20 kt
SIGMETs :   Divers  Orages  Givrage  Turbulence  Onde Orograph.  Cendres Volcan.







- Altitude de l'aérodrome : 82 ft
- Code IATA : QIE
- Voir les cartes d'approche


LFMI - Istres

DERNIER METAR :
  • 221600Z AUTO 12010KT 9999 BKN042 16/10 Q1016 NOSIG

METARs EXPIRÉS :
  • 221530Z AUTO 11008KT 9999 OVC040 16/10 Q1016 NOSIG
  • 221500Z AUTO 10009KT 9999 FEW040 16/10 Q1017 NOSIG
  • 221430Z AUTO 12010KT 9999 BKN026 BKN036 17/10 Q1016 NOSIG
  • 221400Z AUTO 11012KT 9999 FEW024 SCT030 BKN035 16/11 Q1017 NOSIG
  • 221330Z AUTO 12011KT 9999 BKN044 17/11 Q1017 NOSIG

TAF TAF LFMI
Valide du 22 à 15h jusqu'au 23 à 15h UTC


221400Z 2215/2315 14015KT 9999 SCT030 BKN035
BECMG 2217/2219 10010KT BKN022
TEMPO 2222/2303 SCT010
BECMG 2306/2308 BKN035
BECMG 2311/2313 15010KT CAVOK
Pas de NOTAMs connus pour ce terrain.



MET'MAP, la Météo Aéronautique d'un coup d'oeil ! - Copyright ORBIFLY Décembre 2007 - Disclaimer

ORBIFLY MET'MAP TEAM :

Programmation & Développement : Alexandra Zaïnal
Conception & Développement : Baudouin d'Aumeries
Co-Programmation & Développement : Marc-Olivier Méhu
Soutien technique & logistique : Manuel Goepfert

Contact : metmap@orbifly.com




SOURCES & CREDITS :

   NOAA